PRINT OUT SECTION, show »

METAR EPBY 212300Z 07011KT CAVOK 18/12 Q1011=

METAR EPGD 212300Z 06006KT CAVOK 17/13 Q1014 =

METAR EPKK 212300Z 05007KT CAVOK 18/13 Q1009 =

METAR EPKT 212300Z 10005KT CAVOK 17/12 Q1009 =

METAR EPLB 212300Z 07005KT CAVOK 15/13 Q1012 =

METAR EPLL 212300Z 08007KT CAVOK 19/11 Q1010 =

METAR EPML 212300Z NIL=

METAR EPMO 212300Z 06009KT CAVOK 16/12 Q1012 =

METAR EPPO 212300Z 07009KT CAVOK 19/12 Q1009 =

METAR EPRA 212300Z 08007KT CAVOK 16/13 Q1011=

METAR EPRZ 212300Z 07006KT CAVOK 17/14 Q1010 =

METAR EPSC 212300Z 06008KT CAVOK 19/14 Q1010 =

METAR EPSY 212300Z 05004KT 020V110 CAVOK 15/12 Q1014=

METAR EPWA 212300Z 08010KT CAVOK 20/12 Q1012 NOSIG=

METAR EPWR 212300Z 08010KT CAVOK 21/12 Q1008 =

METAR EPZG 212300Z NIL=
 METAR EPLL
Lokalizacja:EPLL Łódź
Czas:23:00 UTC
Średni kierunek wiatru:80 °
Średnia prędkość wiatru:7 węzłów
CAVOK:Widzialność 10 km i więcej, zjawisko: NIL, zachmurzenie: NSC
Temperatura powietrza:19 °C
Temperatura punktu rosy:11 °C
Ciśnienie QNH:1010 hPa